createdAt,value
2018-03-03T00:00:12.094Z,56.90
2018-03-03T00:02:39.827Z,53.20
2018-03-03T00:05:07.430Z,43.33
2018-03-03T00:07:35.055Z,46.17
2018-03-03T00:10:02.687Z,47.10
2018-03-03T00:12:31.158Z,46.37
2018-03-03T00:14:58.982Z,56.27
2018-03-03T00:17:26.573Z,51.80
2018-03-03T00:19:54.179Z,51.07
2018-03-03T00:25:20.322Z,49.60
2018-03-03T00:27:47.979Z,53.57
2018-03-03T00:30:15.750Z,58.57
2018-03-03T00:32:43.380Z,46.10
2018-03-03T00:35:11.793Z,42.10
2018-03-03T00:37:39.426Z,52.83
2018-03-03T00:40:07.046Z,49.03
2018-03-03T00:42:34.649Z,44.07
2018-03-03T00:45:03.175Z,44.43
2018-03-03T00:47:34.940Z,44.97
2018-03-03T00:50:02.587Z,43.27
2018-03-03T00:52:30.186Z,44.77
2018-03-03T00:54:58.595Z,45.60
2018-03-03T00:57:26.188Z,46.07
2018-03-03T00:59:53.784Z,46.83
2018-03-03T01:02:22.190Z,44.57
2018-03-03T01:04:49.858Z,38.67
2018-03-03T01:07:17.450Z,43.63
2018-03-03T01:09:45.083Z,43.23
2018-03-03T01:12:12.698Z,50.40
2018-03-03T01:14:40.299Z,43.53
2018-03-03T01:17:07.918Z,35.67
2018-03-03T01:19:35.528Z,44.67
2018-03-03T01:22:03.191Z,48.40
2018-03-03T01:24:30.794Z,40.70
2018-03-03T01:26:59.251Z,48.03
2018-03-03T01:29:26.935Z,47.17
2018-03-03T01:31:54.597Z,48.60
2018-03-03T01:34:22.202Z,42.13
2018-03-03T01:36:49.917Z,49.33
2018-03-03T01:39:17.543Z,46.77
2018-03-03T01:41:46.167Z,44.40
2018-03-03T01:44:14.547Z,43.27
2018-03-03T01:46:49.513Z,46.90
2018-03-03T01:49:17.111Z,39.87
2018-03-03T01:51:44.921Z,45.27
2018-03-03T01:54:13.359Z,44.50
2018-03-03T01:56:41.143Z,44.20
2018-03-03T01:59:09.539Z,47.93
2018-03-03T02:01:37.928Z,44.20
2018-03-03T02:04:05.582Z,43.30
2018-03-03T02:06:34.028Z,44.87
2018-03-03T02:09:01.645Z,50.97
2018-03-03T02:11:29.275Z,40.53
2018-03-03T02:13:57.662Z,41.80
2018-03-03T02:16:25.271Z,43.90
2018-03-03T02:18:52.899Z,41.00
2018-03-03T02:21:20.493Z,50.40
2018-03-03T02:23:48.150Z,51.33
2018-03-03T02:26:15.746Z,44.40
2018-03-03T02:28:44.094Z,47.73
2018-03-03T02:31:11.708Z,48.40
2018-03-03T02:33:39.917Z,48.63
2018-03-03T02:36:07.545Z,43.40
2018-03-03T02:38:35.151Z,45.20
2018-03-03T02:41:02.779Z,47.60
2018-03-03T02:43:30.417Z,42.17
2018-03-03T02:45:58.067Z,50.77
2018-03-03T02:48:26.930Z,43.27
2018-03-03T02:50:54.638Z,50.03
2018-03-03T02:53:22.252Z,48.57
2018-03-03T02:55:49.866Z,45.93
2018-03-03T02:58:17.499Z,39.97
2018-03-03T03:00:45.917Z,44.90
2018-03-03T03:03:13.549Z,47.23
2018-03-03T03:05:41.199Z,44.73
2018-03-03T03:08:09.609Z,46.40
2018-03-03T03:10:37.210Z,45.17
2018-03-03T03:13:04.830Z,44.77
2018-03-03T03:15:32.475Z,45.83
2018-03-03T03:18:00.198Z,42.10
2018-03-03T03:20:27.865Z,42.67
2018-03-03T03:22:56.222Z,41.20
2018-03-03T03:25:23.859Z,41.07
2018-03-03T03:27:51.495Z,42.47
2018-03-03T03:30:19.106Z,47.43
2018-03-03T03:32:47.511Z,47.90
2018-03-03T03:35:15.113Z,43.07
2018-03-03T03:37:42.754Z,45.40
2018-03-03T03:40:10.368Z,44.50
2018-03-03T03:42:37.997Z,41.73
2018-03-03T03:45:05.629Z,43.83
2018-03-03T03:47:33.275Z,49.00
2018-03-03T03:50:01.646Z,45.23
2018-03-03T03:52:30.915Z,43.63
2018-03-03T03:54:58.604Z,48.37
2018-03-03T03:57:27.019Z,53.10
2018-03-03T03:59:54.655Z,42.37
2018-03-03T04:02:23.043Z,37.90
2018-03-03T04:04:50.691Z,43.37
2018-03-03T04:07:19.072Z,46.37
2018-03-03T04:09:47.476Z,50.90
2018-03-03T04:12:15.123Z,42.93
2018-03-03T04:14:42.726Z,42.10
2018-03-03T04:17:10.343Z,46.73
2018-03-03T04:19:38.132Z,39.10
2018-03-03T04:22:05.791Z,42.67
2018-03-03T04:24:33.450Z,41.93
2018-03-03T04:27:01.037Z,41.00
2018-03-03T04:29:28.657Z,45.53
2018-03-03T04:31:56.272Z,44.70
2018-03-03T04:34:23.872Z,43.03
2018-03-03T04:36:51.512Z,43.03
2018-03-03T04:39:19.875Z,43.10
2018-03-03T04:41:48.311Z,47.43
2018-03-03T04:44:15.956Z,46.63
2018-03-03T04:46:43.614Z,43.93
2018-03-03T04:49:11.235Z,43.63
2018-03-03T04:51:38.829Z,47.73
2018-03-03T04:54:06.650Z,45.80
2018-03-03T04:56:34.298Z,44.43
2018-03-03T04:59:07.666Z,46.67
2018-03-03T05:04:44.763Z,38.23
2018-03-03T05:07:26.239Z,42.80
2018-03-03T05:09:53.854Z,45.13
2018-03-03T05:15:28.607Z,42.73
2018-03-03T05:18:02.618Z,42.40
2018-03-03T05:20:35.994Z,44.77
2018-03-03T05:23:09.447Z,42.63
2018-03-03T05:25:42.663Z,41.77
2018-03-03T05:31:20.626Z,41.67
2018-03-03T05:34:06.876Z,53.83
2018-03-03T05:36:40.273Z,43.23
2018-03-03T05:39:13.566Z,41.30
2018-03-03T05:41:44.785Z,43.23
2018-03-03T05:44:18.141Z,50.70
2018-03-03T05:47:05.617Z,40.07
2018-03-03T05:49:39.007Z,48.07
2018-03-03T05:55:17.169Z,51.17
2018-03-03T05:57:48.340Z,47.40
2018-03-03T06:00:29.511Z,45.80
2018-03-03T06:03:02.863Z,40.97
2018-03-03T06:08:35.818Z,46.47
2018-03-03T06:11:04.235Z,54.37
2018-03-03T06:13:31.855Z,38.23
2018-03-03T06:16:00.242Z,52.77
2018-03-03T06:18:28.922Z,39.20
2018-03-03T06:20:57.323Z,43.93
2018-03-03T06:23:24.997Z,47.07
2018-03-03T06:25:52.595Z,49.30
2018-03-03T06:28:20.186Z,44.43
2018-03-03T06:30:48.590Z,48.17
2018-03-03T06:33:16.199Z,43.90
2018-03-03T06:35:43.837Z,45.73
2018-03-03T06:38:11.518Z,41.47
2018-03-03T06:40:39.117Z,48.03
2018-03-03T06:43:06.774Z,51.03
2018-03-03T06:45:34.366Z,47.93
2018-03-03T06:48:02.014Z,44.17
2018-03-03T06:50:29.666Z,50.37
2018-03-03T06:52:57.255Z,49.00
2018-03-03T06:55:24.911Z,42.63
2018-03-03T06:57:52.543Z,48.87
2018-03-03T07:00:20.183Z,46.57
2018-03-03T07:02:47.790Z,42.90
2018-03-03T07:05:15.442Z,53.00
2018-03-03T07:07:43.105Z,47.70
2018-03-03T07:10:10.758Z,45.10
2018-03-03T07:12:38.405Z,45.83
2018-03-03T07:15:06.923Z,49.47
2018-03-03T07:17:35.281Z,46.50
2018-03-03T07:20:02.904Z,43.27
2018-03-03T07:22:31.375Z,44.33
2018-03-03T07:24:58.951Z,49.20
2018-03-03T07:27:26.555Z,49.17
2018-03-03T07:29:54.201Z,48.17
2018-03-03T07:32:21.798Z,50.60
2018-03-03T07:34:49.514Z,53.03
2018-03-03T07:37:17.117Z,51.50
2018-03-03T07:39:44.747Z,44.13
2018-03-03T07:42:12.447Z,52.03
2018-03-03T07:44:40.093Z,49.30
2018-03-03T07:47:07.888Z,50.63
2018-03-03T07:49:36.281Z,44.93
2018-03-03T07:52:03.899Z,49.57
2018-03-03T07:54:31.578Z,45.30
2018-03-03T07:57:12.277Z,51.93
2018-03-03T07:59:40.117Z,51.67
2018-03-03T08:02:08.554Z,44.63
2018-03-03T08:04:36.210Z,46.73
2018-03-03T08:07:04.653Z,38.33
2018-03-03T08:09:32.603Z,40.10
2018-03-03T08:12:01.129Z,45.03
2018-03-03T08:14:28.734Z,48.07
2018-03-03T08:16:56.335Z,46.83
2018-03-03T08:19:23.982Z,52.30
2018-03-03T08:21:52.374Z,42.30
2018-03-03T08:24:20.003Z,40.87
2018-03-03T08:26:48.427Z,41.23
2018-03-03T08:29:16.035Z,40.67
2018-03-03T08:31:44.559Z,41.10
2018-03-03T08:34:12.231Z,41.77
2018-03-03T08:36:39.946Z,36.93
2018-03-03T08:39:07.607Z,38.93
2018-03-03T08:41:36.264Z,39.80
2018-03-03T08:44:03.861Z,39.33
2018-03-03T08:46:31.522Z,35.97
2018-03-03T08:48:59.156Z,35.90
2018-03-03T08:51:26.787Z,30.10
2018-03-03T08:53:54.401Z,28.40
2018-03-03T08:56:22.782Z,40.17
2018-03-03T08:58:51.230Z,35.00
2018-03-03T09:01:20.356Z,30.23
2018-03-03T09:03:48.935Z,38.10
2018-03-03T09:06:17.294Z,31.37
2018-03-03T09:08:44.882Z,28.20
2018-03-03T09:11:12.514Z,29.67
2018-03-03T09:13:40.107Z,26.60
2018-03-03T09:16:07.774Z,30.57
2018-03-03T09:18:35.397Z,28.93
2018-03-03T09:21:03.066Z,31.03
2018-03-03T09:23:31.490Z,29.80
2018-03-03T09:25:59.171Z,29.47
2018-03-03T09:28:26.794Z,30.53
2018-03-03T09:30:54.505Z,33.40
2018-03-03T09:33:22.122Z,32.23
2018-03-03T09:35:49.751Z,33.63
2018-03-03T09:38:18.156Z,32.13
2018-03-03T09:40:45.795Z,33.70
2018-03-03T09:43:14.353Z,35.27
2018-03-03T09:45:42.662Z,30.10
2018-03-03T09:48:11.075Z,31.53
2018-03-03T09:50:38.741Z,36.60
2018-03-03T09:53:06.383Z,32.27
2018-03-03T09:55:34.018Z,33.77
2018-03-03T09:58:02.415Z,33.60
2018-03-03T10:00:30.022Z,31.70
2018-03-03T10:02:57.737Z,31.53
2018-03-03T10:05:25.385Z,35.10
2018-03-03T10:07:52.992Z,36.17
2018-03-03T10:10:20.649Z,34.13
2018-03-03T10:12:48.803Z,30.47
2018-03-03T10:15:16.644Z,36.90
2018-03-03T10:17:44.259Z,30.20
2018-03-03T10:20:12.018Z,39.23
2018-03-03T10:22:41.159Z,29.67
2018-03-03T10:25:09.921Z,26.50
2018-03-03T10:27:37.819Z,31.40
2018-03-03T10:30:05.438Z,26.77
2018-03-03T10:32:33.078Z,32.73
2018-03-03T10:35:00.745Z,32.57
2018-03-03T10:37:28.367Z,27.77
2018-03-03T10:39:56.779Z,32.93
2018-03-03T10:42:24.459Z,24.53
2018-03-03T10:44:52.078Z,27.60
2018-03-03T10:47:19.708Z,30.37
2018-03-03T10:49:48.144Z,31.53
2018-03-03T10:52:15.781Z,24.27
2018-03-03T10:54:43.442Z,28.37
2018-03-03T10:57:11.078Z,29.43
2018-03-03T10:59:39.498Z,27.67
2018-03-03T11:02:07.200Z,26.43
2018-03-03T11:04:34.847Z,27.93
2018-03-03T11:07:02.488Z,30.73
2018-03-03T11:09:30.141Z,24.30
2018-03-03T11:11:57.791Z,27.40
2018-03-03T11:14:25.511Z,26.93
2018-03-03T11:16:53.958Z,24.87
2018-03-03T11:19:23.135Z,22.60
2018-03-03T11:21:50.772Z,25.93
2018-03-03T11:24:18.453Z,21.93
2018-03-03T11:26:46.061Z,30.77
2018-03-03T11:29:13.679Z,32.10
2018-03-03T11:31:41.372Z,25.80
2018-03-03T11:34:08.998Z,29.07
2018-03-03T11:36:36.659Z,23.70
2018-03-03T11:39:04.279Z,28.13
2018-03-03T11:41:32.812Z,28.60
2018-03-03T11:44:00.409Z,32.63
2018-03-03T11:46:29.404Z,26.70
2018-03-03T11:48:57.807Z,26.07
2018-03-03T11:51:25.433Z,27.07
2018-03-03T11:53:53.066Z,28.80
2018-03-03T11:56:20.720Z,23.20
2018-03-03T11:58:48.348Z,31.10
2018-03-03T12:01:15.996Z,31.00
2018-03-03T12:03:44.442Z,25.90
2018-03-03T12:06:12.058Z,30.03
2018-03-03T12:08:39.748Z,28.23
2018-03-03T12:11:07.382Z,27.80
2018-03-03T12:13:35.069Z,27.30
2018-03-03T12:16:02.719Z,29.80
2018-03-03T12:18:30.320Z,29.10
2018-03-03T12:20:59.369Z,31.80
2018-03-03T12:23:26.967Z,27.40
2018-03-03T12:25:56.152Z,27.07
2018-03-03T12:28:23.811Z,25.87
2018-03-03T12:30:51.466Z,24.97
2018-03-03T12:33:19.137Z,27.90
2018-03-03T12:35:46.739Z,30.87
2018-03-03T12:38:14.380Z,27.77
2018-03-03T12:40:42.789Z,25.03
2018-03-03T12:43:10.411Z,28.03
2018-03-03T12:45:39.035Z,33.20
2018-03-03T12:48:06.781Z,32.10
2018-03-03T12:50:34.462Z,27.83
2018-03-03T12:53:02.054Z,29.23
2018-03-03T12:55:29.695Z,30.20
2018-03-03T12:57:57.294Z,27.37
2018-03-03T13:00:24.940Z,28.47
2018-03-03T13:02:52.621Z,26.80
2018-03-03T13:05:20.281Z,27.73
2018-03-03T13:07:47.891Z,29.50
2018-03-03T13:10:15.583Z,29.67
2018-03-03T13:12:43.332Z,27.60
2018-03-03T13:15:11.006Z,31.13
2018-03-03T13:17:38.609Z,27.20
2018-03-03T13:20:06.988Z,28.23
2018-03-03T13:22:34.625Z,28.67
2018-03-03T13:25:02.987Z,30.90
2018-03-03T13:27:31.464Z,26.63
2018-03-03T13:29:59.055Z,28.53
2018-03-03T13:32:27.463Z,24.73
2018-03-03T13:34:55.103Z,24.47
2018-03-03T13:37:23.749Z,23.53
2018-03-03T13:39:51.527Z,25.27
2018-03-03T13:42:19.183Z,31.23
2018-03-03T13:44:46.803Z,25.03
2018-03-03T13:47:14.580Z,27.93
2018-03-03T13:49:42.169Z,25.37
2018-03-03T13:52:09.774Z,26.07
2018-03-03T13:54:37.477Z,26.03
2018-03-03T13:57:05.074Z,26.83
2018-03-03T13:59:33.439Z,25.63
2018-03-03T14:02:01.842Z,25.33
2018-03-03T14:04:29.429Z,23.97
2018-03-03T14:06:57.270Z,24.53
2018-03-03T14:09:24.946Z,26.00
2018-03-03T14:11:52.590Z,23.53
2018-03-03T14:14:20.251Z,24.83
2018-03-03T14:16:47.936Z,24.37
2018-03-03T14:19:15.569Z,24.93
2018-03-03T14:21:43.288Z,22.43
2018-03-03T14:24:10.928Z,23.47
2018-03-03T14:26:38.564Z,24.37
2018-03-03T14:29:06.172Z,25.20
2018-03-03T14:31:33.823Z,24.23
2018-03-03T14:34:01.473Z,20.73
2018-03-03T14:36:29.101Z,21.97
2018-03-03T14:38:56.696Z,25.43
2018-03-03T14:41:24.341Z,23.67
2018-03-03T14:43:52.107Z,22.87
2018-03-03T14:46:19.726Z,23.10
2018-03-03T14:48:48.134Z,23.00
2018-03-03T14:51:15.811Z,21.37
2018-03-03T14:53:43.441Z,23.03
2018-03-03T14:56:11.537Z,25.10
2018-03-03T14:58:39.130Z,24.30
2018-03-03T15:01:06.801Z,24.70
2018-03-03T15:03:35.172Z,30.30
2018-03-03T15:06:03.589Z,23.87
2018-03-03T15:08:31.376Z,26.93
2018-03-03T15:10:58.975Z,25.87
2018-03-03T15:13:27.343Z,27.13
2018-03-03T15:15:55.010Z,28.87
2018-03-03T15:18:23.458Z,23.07
2018-03-03T15:20:51.124Z,26.30
2018-03-03T15:23:18.714Z,24.00
2018-03-03T15:25:47.089Z,23.37
2018-03-03T15:28:14.731Z,24.10
2018-03-03T15:30:42.363Z,26.50
2018-03-03T15:33:10.020Z,27.13
2018-03-03T15:35:38.771Z,28.93
2018-03-03T15:38:07.149Z,27.50
2018-03-03T15:40:35.630Z,27.93
2018-03-03T15:43:03.992Z,24.77
2018-03-03T15:45:32.397Z,26.53
2018-03-03T15:48:00.115Z,26.70
2018-03-03T15:50:27.744Z,27.13
2018-03-03T15:52:55.475Z,28.77
2018-03-03T15:55:23.111Z,24.13
2018-03-03T15:57:50.723Z,22.03
2018-03-03T16:00:18.346Z,27.87
2018-03-03T16:02:46.762Z,28.63
2018-03-03T16:05:14.370Z,30.60
2018-03-03T16:07:42.033Z,25.13
2018-03-03T16:10:09.634Z,26.93
2018-03-03T16:12:37.274Z,27.93
2018-03-03T16:15:05.656Z,25.03
2018-03-03T16:17:34.079Z,31.83
2018-03-03T16:20:02.413Z,25.80
2018-03-03T16:22:30.083Z,31.57
2018-03-03T16:24:57.710Z,28.10
2018-03-03T16:27:26.190Z,28.97
2018-03-03T16:29:53.833Z,26.17
2018-03-03T16:32:21.473Z,28.87
2018-03-03T16:34:49.082Z,28.40
2018-03-03T16:37:17.496Z,27.77
2018-03-03T16:39:45.490Z,28.80
2018-03-03T16:42:13.179Z,29.07
2018-03-03T16:44:40.787Z,32.37
2018-03-03T16:47:09.050Z,29.83
2018-03-03T16:49:36.712Z,27.23
2018-03-03T16:52:04.343Z,28.20
2018-03-03T16:54:32.789Z,31.47
2018-03-03T16:57:00.484Z,26.47
2018-03-03T16:59:28.922Z,30.87
2018-03-03T17:01:56.534Z,28.73
2018-03-03T17:04:25.011Z,28.03
2018-03-03T17:06:53.448Z,30.37
2018-03-03T17:09:21.088Z,27.33
2018-03-03T17:11:48.756Z,27.07
2018-03-03T17:14:16.358Z,32.80
2018-03-03T17:16:43.967Z,28.23
2018-03-03T17:19:11.604Z,29.83
2018-03-03T17:21:40.432Z,27.10
2018-03-03T17:24:08.096Z,28.93
2018-03-03T17:26:35.729Z,33.47
2018-03-03T17:29:03.393Z,32.27
2018-03-03T17:31:31.149Z,31.43
2018-03-03T17:33:58.796Z,27.67
2018-03-03T17:36:26.465Z,27.20
2018-03-03T17:38:54.074Z,26.80
2018-03-03T17:41:21.715Z,33.43
2018-03-03T17:43:49.360Z,27.67
2018-03-03T17:46:17.071Z,28.50
2018-03-03T17:48:44.722Z,29.47
2018-03-03T17:51:12.542Z,30.67
2018-03-03T17:53:41.437Z,28.17
2018-03-03T17:56:09.115Z,31.47
2018-03-03T17:58:36.775Z,27.57
2018-03-03T18:01:04.390Z,31.03
2018-03-03T18:03:32.772Z,25.37
2018-03-03T18:06:01.190Z,29.53
2018-03-03T18:08:28.813Z,31.17
2018-03-03T18:10:57.243Z,31.30
2018-03-03T18:13:31.855Z,26.30
2018-03-03T18:15:59.621Z,30.57
2018-03-03T18:18:31.404Z,32.20
2018-03-03T18:20:59.082Z,26.13
2018-03-03T18:23:27.618Z,27.57
2018-03-03T18:25:55.264Z,27.57
2018-03-03T18:28:22.914Z,29.43
2018-03-03T18:30:50.600Z,28.77
2018-03-03T18:33:18.226Z,29.60
2018-03-03T18:35:45.961Z,29.27
2018-03-03T18:38:14.426Z,29.43
2018-03-03T18:40:42.856Z,28.83
2018-03-03T18:43:10.467Z,30.80
2018-03-03T18:45:38.170Z,38.10
2018-03-03T18:48:05.808Z,31.07
2018-03-03T18:50:34.180Z,37.03
2018-03-03T18:53:02.644Z,30.67
2018-03-03T18:55:30.287Z,24.63
2018-03-03T18:57:57.979Z,34.57
2018-03-03T19:00:26.325Z,29.80
2018-03-03T19:02:53.967Z,26.30
2018-03-03T19:07:55.577Z,34.43
2018-03-03T19:10:23.282Z,30.93
2018-03-03T19:12:50.990Z,37.83
2018-03-03T19:15:18.666Z,32.03
2018-03-03T19:17:46.317Z,30.33
2018-03-03T19:20:13.914Z,35.73
2018-03-03T19:22:42.955Z,33.37
2018-03-03T19:25:10.556Z,37.67
2018-03-03T19:27:38.943Z,36.87
2018-03-03T19:30:07.367Z,35.00
2018-03-03T19:32:35.057Z,32.30
2018-03-03T19:35:02.666Z,37.13
2018-03-03T19:37:30.378Z,38.43
2018-03-03T19:39:58.046Z,37.23
2018-03-03T19:42:26.447Z,30.63
2018-03-03T19:44:54.812Z,30.97
2018-03-03T19:47:23.258Z,32.50
2018-03-03T19:49:50.954Z,33.10
2018-03-03T19:52:19.324Z,31.03
2018-03-03T19:54:47.751Z,33.33
2018-03-03T19:57:15.428Z,32.43
2018-03-03T19:59:43.032Z,32.37
2018-03-03T20:02:11.432Z,35.60
2018-03-03T20:04:39.080Z,31.17
2018-03-03T20:07:07.684Z,31.37
2018-03-03T20:09:35.680Z,36.90
2018-03-03T20:12:04.230Z,35.13
2018-03-03T20:14:32.023Z,31.17
2018-03-03T20:16:59.847Z,32.60
2018-03-03T20:19:29.116Z,47.30
2018-03-03T20:21:56.756Z,39.60
2018-03-03T20:24:24.396Z,35.13
2018-03-03T20:26:52.034Z,36.43
2018-03-03T20:29:19.680Z,43.03
2018-03-03T20:31:48.473Z,33.23
2018-03-03T20:34:16.143Z,35.03
2018-03-03T20:36:43.795Z,28.90
2018-03-03T20:39:12.762Z,33.87
2018-03-03T20:41:41.216Z,38.07
2018-03-03T20:44:08.872Z,39.70
2018-03-03T20:46:36.522Z,38.63
2018-03-03T20:49:04.127Z,32.13
2018-03-03T20:51:32.302Z,38.50
2018-03-03T20:53:59.931Z,36.70
2018-03-03T20:56:27.631Z,35.07
2018-03-03T20:59:04.677Z,35.33
2018-03-03T21:01:43.284Z,33.03
2018-03-03T21:04:10.910Z,33.87
2018-03-03T21:06:38.526Z,31.27
2018-03-03T21:09:06.173Z,35.00
2018-03-03T21:11:35.261Z,34.43
2018-03-03T21:14:02.926Z,32.60
2018-03-03T21:16:31.374Z,33.00
2018-03-03T21:18:59.048Z,34.13
2018-03-03T21:21:26.808Z,34.83
2018-03-03T21:23:54.450Z,39.20
2018-03-03T21:26:22.129Z,37.63
2018-03-03T21:28:49.747Z,36.53
2018-03-03T21:31:17.365Z,34.20
2018-03-03T21:33:45.505Z,32.70
2018-03-03T21:36:13.102Z,33.87
2018-03-03T21:38:40.709Z,30.77
2018-03-03T21:41:09.141Z,35.87
2018-03-03T21:43:36.746Z,33.40
2018-03-03T21:46:05.164Z,34.57
2018-03-03T21:48:32.864Z,36.07
2018-03-03T21:51:01.292Z,36.00
2018-03-03T21:53:28.943Z,36.60
2018-03-03T21:55:57.292Z,35.33
2018-03-03T21:58:33.438Z,38.23
2018-03-03T22:01:01.081Z,33.17
2018-03-03T22:03:28.766Z,38.77
2018-03-03T22:05:58.314Z,34.77
2018-03-03T22:08:26.422Z,34.30
2018-03-03T22:10:54.057Z,38.93
2018-03-03T22:13:21.681Z,39.83
2018-03-03T22:15:50.074Z,36.90
2018-03-03T22:18:18.654Z,37.50
2018-03-03T22:20:46.309Z,41.13
2018-03-03T22:23:14.682Z,34.70
2018-03-03T22:25:43.124Z,38.30
2018-03-03T22:28:10.767Z,35.23
2018-03-03T22:30:38.387Z,38.90
2018-03-03T22:33:06.810Z,37.23
2018-03-03T22:35:34.459Z,35.07
2018-03-03T22:38:02.094Z,37.93
2018-03-03T22:40:29.793Z,31.40
2018-03-03T22:42:57.394Z,39.63
2018-03-03T22:45:25.832Z,39.23
2018-03-03T22:47:53.488Z,35.03
2018-03-03T22:50:23.242Z,36.17
2018-03-03T22:52:51.602Z,36.10
2018-03-03T22:55:19.240Z,42.13
2018-03-03T22:57:46.872Z,40.43
2018-03-03T23:00:14.522Z,34.80
2018-03-03T23:02:42.919Z,39.13
2018-03-03T23:05:10.900Z,36.17
2018-03-03T23:07:38.552Z,37.07
2018-03-03T23:10:06.163Z,35.70
2018-03-03T23:12:33.767Z,38.87
2018-03-03T23:15:01.417Z,40.67
2018-03-03T23:17:29.019Z,39.27
2018-03-03T23:19:56.609Z,43.30
2018-03-03T23:22:24.238Z,40.30
2018-03-03T23:24:51.868Z,40.47
2018-03-03T23:27:19.492Z,37.90
2018-03-03T23:29:47.128Z,44.03
2018-03-03T23:32:14.794Z,37.83
2018-03-03T23:34:42.403Z,42.70
2018-03-03T23:37:10.082Z,41.37
2018-03-03T23:39:37.735Z,42.97
2018-03-03T23:42:05.589Z,42.43
2018-03-03T23:44:34.232Z,38.37
2018-03-03T23:47:02.609Z,38.20
2018-03-03T23:49:31.754Z,41.37
2018-03-03T23:51:59.436Z,46.87
2018-03-03T23:54:27.085Z,40.37
2018-03-03T23:56:54.778Z,45.47
2018-03-03T23:59:22.399Z,39.70
